createdAt,value
2022-11-22T00:00:33.842Z,98468.22
2022-11-22T00:03:19.038Z,98464.00
2022-11-22T00:06:04.026Z,98453.84
2022-11-22T00:08:49.213Z,98457.41
2022-11-22T00:11:34.213Z,98455.88
2022-11-22T00:14:19.153Z,98449.88
2022-11-22T00:17:04.514Z,98446.31
2022-11-22T00:19:49.534Z,98418.34
2022-11-22T00:22:38.500Z,98449.63
2022-11-22T00:25:27.740Z,98445.50
2022-11-22T00:28:13.058Z,98446.81
2022-11-22T00:30:58.103Z,98433.91
2022-11-22T00:33:43.135Z,98444.59
2022-11-22T00:36:28.326Z,98449.66
2022-11-22T00:39:13.276Z,98437.19
2022-11-22T00:41:58.337Z,98444.38
2022-11-22T00:44:43.344Z,98436.03
2022-11-22T00:47:28.850Z,98436.41
2022-11-22T00:50:13.991Z,98436.97
2022-11-22T00:52:59.306Z,98437.66
2022-11-22T00:55:48.150Z,98407.31
2022-11-22T00:58:33.012Z,98433.44
2022-11-22T01:01:18.373Z,98435.47
2022-11-22T01:04:03.638Z,98430.84
2022-11-22T01:06:48.877Z,98425.91
2022-11-22T01:09:33.849Z,98433.81
2022-11-22T01:12:18.979Z,98421.78
2022-11-22T01:15:05.570Z,98412.38
2022-11-22T01:17:50.532Z,98422.16
2022-11-22T01:20:41.495Z,98411.78
2022-11-22T01:23:26.822Z,98428.50
2022-11-22T01:26:12.654Z,98423.44
2022-11-22T01:28:57.722Z,98428.03
2022-11-22T01:31:42.843Z,98441.00
2022-11-22T01:34:27.839Z,98436.75
2022-11-22T01:37:12.857Z,98431.81
2022-11-22T01:39:57.827Z,98426.88
2022-11-22T01:42:55.623Z,98431.81
2022-11-22T01:45:50.195Z,98433.84
2022-11-22T01:48:50.933Z,98439.13
2022-11-22T01:51:40.300Z,98439.13
2022-11-22T01:54:29.585Z,98437.75
2022-11-22T01:57:20.028Z,98436.06
2022-11-22T02:00:16.771Z,98431.75
2022-11-22T02:03:04.953Z,98426.09
2022-11-22T02:05:51.074Z,98425.63
2022-11-22T02:08:51.893Z,98423.16
2022-11-22T02:11:40.056Z,98430.00
2022-11-22T02:14:27.363Z,98422.47
2022-11-22T02:17:12.404Z,98408.81
2022-11-22T02:19:57.946Z,98441.53
2022-11-22T02:22:52.647Z,98431.88
2022-11-22T02:25:40.552Z,98434.00
2022-11-22T02:28:28.734Z,98433.44
2022-11-22T02:31:41.307Z,98430.25
2022-11-22T02:34:26.474Z,98427.66
2022-11-22T02:37:15.863Z,98416.34
2022-11-22T02:40:07.586Z,98432.59
2022-11-22T02:42:58.699Z,98442.94
2022-11-22T02:45:43.696Z,98426.00
2022-11-22T02:48:28.774Z,98430.63
2022-11-22T02:51:19.694Z,98407.06
2022-11-22T02:54:05.513Z,98429.53
2022-11-22T02:56:50.680Z,98426.94
2022-11-22T02:59:35.705Z,98425.44
2022-11-22T03:02:20.976Z,98431.19
2022-11-22T03:05:05.989Z,98401.53
2022-11-22T03:07:51.300Z,98395.63
2022-11-22T03:10:36.912Z,98428.38
2022-11-22T03:13:22.319Z,98420.59
2022-11-22T03:16:07.525Z,98422.00
2022-11-22T03:18:52.350Z,98404.34
2022-11-22T03:21:38.334Z,98425.16
2022-11-22T03:24:23.531Z,98422.56
2022-11-22T03:27:08.580Z,98413.03
2022-11-22T03:29:53.392Z,98414.81
2022-11-22T03:32:38.429Z,98407.84
2022-11-22T03:35:23.364Z,98409.03
2022-11-22T03:38:08.492Z,98406.88
2022-11-22T03:40:53.793Z,98406.38
2022-11-22T03:43:38.959Z,98406.97
2022-11-22T03:46:24.268Z,98399.06
2022-11-22T03:49:11.847Z,98393.88
2022-11-22T03:51:56.975Z,98406.09
2022-11-22T03:54:42.003Z,98399.84
2022-11-22T03:57:26.870Z,98399.47
2022-11-22T04:00:12.645Z,98401.38
2022-11-22T04:02:57.975Z,98414.94
2022-11-22T04:05:44.955Z,98407.97
2022-11-22T04:08:30.312Z,98416.31
2022-11-22T04:11:15.393Z,98399.28
2022-11-22T04:14:19.266Z,98418.78
2022-11-22T04:17:04.441Z,98406.66
2022-11-22T04:20:07.837Z,98395.94
2022-11-22T04:22:58.025Z,98401.47
2022-11-22T04:25:44.065Z,98420.31
2022-11-22T04:28:53.962Z,98408.88
2022-11-22T04:31:53.093Z,98406.03
2022-11-22T04:34:38.412Z,98406.03
2022-11-22T04:37:23.824Z,98404.25
2022-11-22T04:40:09.819Z,98415.69
2022-11-22T04:43:13.212Z,98406.94
2022-11-22T04:45:58.485Z,98413.81
2022-11-22T04:48:43.447Z,98410.41
2022-11-22T04:51:47.331Z,98414.06
2022-11-22T04:54:32.475Z,98406.44
2022-11-22T04:57:17.449Z,98419.53
2022-11-22T05:00:04.025Z,98390.94
2022-11-22T05:02:49.176Z,98428.47
2022-11-22T05:05:42.954Z,98416.00
2022-11-22T05:08:29.203Z,98422.97
2022-11-22T05:11:14.665Z,98411.97
2022-11-22T05:13:59.767Z,98427.19
2022-11-22T05:16:44.788Z,98426.50
2022-11-22T05:19:29.841Z,98434.03
2022-11-22T05:22:15.203Z,98418.84
2022-11-22T05:25:00.367Z,98428.03
2022-11-22T05:27:45.381Z,98424.16
2022-11-22T05:30:30.453Z,98406.03
2022-11-22T05:33:15.701Z,98435.09
2022-11-22T05:36:01.876Z,98431.22
2022-11-22T05:38:47.479Z,98415.53
2022-11-22T05:41:32.634Z,98420.72
2022-11-22T05:44:17.880Z,98414.97
2022-11-22T05:47:02.733Z,98398.47
2022-11-22T05:49:48.004Z,98410.25
2022-11-22T05:52:32.977Z,98422.00
2022-11-22T05:55:17.962Z,98418.09
2022-11-22T05:58:02.909Z,98394.47
2022-11-22T06:00:48.331Z,98418.72
2022-11-22T06:03:34.546Z,98429.41
2022-11-22T06:06:19.887Z,98421.63
2022-11-22T06:09:05.341Z,98414.22
2022-11-22T06:11:50.497Z,98427.28
2022-11-22T06:14:41.597Z,98427.28
2022-11-22T06:17:28.532Z,98430.22
2022-11-22T06:20:13.863Z,98421.16
2022-11-22T06:22:59.490Z,98418.44
2022-11-22T06:25:44.865Z,98423.38
2022-11-22T06:28:31.007Z,98433.63
2022-11-22T06:31:19.514Z,98433.28
2022-11-22T06:34:04.845Z,98438.66
2022-11-22T06:36:49.845Z,98436.56
2022-11-22T06:39:35.661Z,98433.53
2022-11-22T06:42:20.549Z,98434.72
2022-11-22T06:45:06.305Z,98438.22
2022-11-22T06:47:51.572Z,98437.09
2022-11-22T06:50:36.760Z,98410.59
2022-11-22T06:53:45.822Z,98434.72
2022-11-22T06:56:32.584Z,98407.44
2022-11-22T06:59:17.822Z,98434.41
2022-11-22T07:02:06.351Z,98428.41
2022-11-22T07:05:23.200Z,98427.19
2022-11-22T07:08:04.592Z,98429.09
2022-11-22T07:10:52.174Z,98433.19
2022-11-22T07:13:37.944Z,98445.00
2022-11-22T07:16:23.320Z,98446.28
2022-11-22T07:19:08.424Z,98449.22
2022-11-22T07:21:53.567Z,98453.94
2022-11-22T07:24:38.607Z,98456.41
2022-11-22T07:27:23.881Z,98463.47
2022-11-22T07:30:09.672Z,98466.16
2022-11-22T07:32:54.632Z,98461.47
2022-11-22T07:35:39.645Z,98468.03
2022-11-22T07:38:26.459Z,98438.84
2022-11-22T07:41:11.747Z,98473.09
2022-11-22T07:43:57.103Z,98459.78
2022-11-22T07:46:42.608Z,98478.97
2022-11-22T07:49:27.827Z,98482.38
2022-11-22T07:52:13.121Z,98494.50
2022-11-22T07:54:58.138Z,98486.88
2022-11-22T07:57:43.408Z,98491.91
2022-11-22T08:00:29.003Z,98493.91
2022-11-22T08:03:17.611Z,98499.19
2022-11-22T08:06:05.597Z,98493.91
2022-11-22T08:08:50.796Z,98461.88
2022-11-22T08:11:36.205Z,98501.69
2022-11-22T08:14:21.479Z,98517.38
2022-11-22T08:17:06.651Z,98484.03
2022-11-22T08:19:53.473Z,98511.47
2022-11-22T08:22:39.636Z,98515.94
2022-11-22T08:25:24.807Z,98466.25
2022-11-22T08:28:09.818Z,98506.06
2022-11-22T08:31:04.304Z,98502.19
2022-11-22T08:33:53.435Z,98511.25
2022-11-22T08:36:38.487Z,98508.22
2022-11-22T08:39:23.747Z,98500.91
2022-11-22T08:42:08.933Z,98511.53
2022-11-22T08:44:54.289Z,98512.56
2022-11-22T08:47:39.596Z,98501.75
2022-11-22T08:50:24.519Z,98529.53
2022-11-22T08:53:09.997Z,98534.13
2022-11-22T08:55:55.434Z,98504.66
2022-11-22T08:58:41.206Z,98519.56
2022-11-22T09:01:26.323Z,98513.28
2022-11-22T09:04:11.246Z,98511.47
2022-11-22T09:10:04.239Z,98509.16
2022-11-22T09:12:49.266Z,98476.88
2022-11-22T09:15:34.634Z,98509.41
2022-11-22T09:18:19.894Z,98500.81
2022-11-22T09:21:16.476Z,98520.31
2022-11-22T09:24:01.508Z,98523.66
2022-11-22T09:26:46.718Z,98518.72
2022-11-22T09:29:32.015Z,98516.31
2022-11-22T09:32:17.233Z,98511.72
2022-11-22T09:35:02.513Z,98511.00
2022-11-22T09:37:47.712Z,98525.53
2022-11-22T09:40:33.100Z,98513.56
2022-11-22T09:43:36.502Z,98510.53
2022-11-22T09:46:33.508Z,98519.66
2022-11-22T09:49:27.629Z,98512.00
2022-11-22T09:52:38.427Z,98530.28
2022-11-22T09:55:30.799Z,98533.84
2022-11-22T09:59:00.704Z,98539.09
2022-11-22T10:01:53.238Z,98535.69
2022-11-22T10:04:43.266Z,98536.53
2022-11-22T10:07:35.498Z,98546.69
2022-11-22T10:10:26.816Z,98523.38
2022-11-22T10:13:17.193Z,98523.94
2022-11-22T10:16:14.716Z,98545.84
2022-11-22T10:19:23.808Z,98539.03
2022-11-22T10:22:13.020Z,98543.94
2022-11-22T10:25:04.140Z,98547.50
2022-11-22T10:28:15.223Z,98541.03
2022-11-22T10:31:27.069Z,98544.59
2022-11-22T10:34:39.854Z,98553.91
2022-11-22T10:37:41.059Z,98547.69
2022-11-22T10:40:31.436Z,98551.13
2022-11-22T10:43:43.091Z,98547.94
2022-11-22T10:46:53.662Z,98548.44
2022-11-22T10:50:06.142Z,98545.94
2022-11-22T10:53:01.233Z,98544.41
2022-11-22T10:55:53.502Z,98550.25
2022-11-22T10:58:44.135Z,98544.97
2022-11-22T11:01:41.594Z,98551.31
2022-11-22T11:04:34.320Z,98547.13
2022-11-22T11:07:23.544Z,98535.13
2022-11-22T11:10:26.291Z,98531.25
2022-11-22T11:13:23.366Z,98513.78
2022-11-22T11:16:12.526Z,98535.72
2022-11-22T11:19:18.085Z,98529.47
2022-11-22T11:22:09.538Z,98534.69
2022-11-22T11:24:54.414Z,98537.31
2022-11-22T11:27:42.467Z,98528.38
2022-11-22T11:30:27.702Z,98528.16
2022-11-22T11:33:32.439Z,98528.16
2022-11-22T11:36:23.396Z,98526.50
2022-11-22T11:39:20.526Z,98522.16
2022-11-22T11:42:24.097Z,98514.06
2022-11-22T11:45:33.002Z,98507.66
2022-11-22T11:48:41.154Z,98507.81
2022-11-22T11:51:37.136Z,98496.53
2022-11-22T11:54:40.812Z,98511.72
2022-11-22T11:57:30.611Z,98508.31
2022-11-22T12:00:20.295Z,98498.72
2022-11-22T12:03:07.560Z,98508.75
2022-11-22T12:06:11.981Z,98494.06
2022-11-22T12:08:58.384Z,98506.50
2022-11-22T12:11:49.007Z,98518.13
2022-11-22T12:15:03.388Z,98521.47
2022-11-22T12:17:49.478Z,98522.59
2022-11-22T12:20:48.756Z,98505.34
2022-11-22T12:23:50.758Z,98515.31
2022-11-22T12:26:36.376Z,98519.72
2022-11-22T12:29:21.993Z,98518.75
2022-11-22T12:32:27.250Z,98530.59
2022-11-22T12:35:20.334Z,98519.34
2022-11-22T12:38:14.273Z,98533.25
2022-11-22T12:41:04.659Z,98535.97
2022-11-22T12:44:05.940Z,98517.00
2022-11-22T12:47:05.321Z,98533.41
2022-11-22T12:49:56.659Z,98546.38
2022-11-22T12:52:52.896Z,98548.84
2022-11-22T12:55:47.649Z,98554.09
2022-11-22T12:58:50.051Z,98549.97
2022-11-22T13:02:12.125Z,98550.69
2022-11-22T13:05:13.436Z,98548.09
2022-11-22T13:08:16.631Z,98550.88
2022-11-22T13:11:16.359Z,98539.34
2022-11-22T13:14:20.562Z,98556.22
2022-11-22T13:17:11.170Z,98561.34
2022-11-22T13:19:59.097Z,98566.59
2022-11-22T13:23:02.135Z,98560.88
2022-11-22T13:25:58.343Z,98554.78
2022-11-22T13:28:44.970Z,98542.00
2022-11-22T13:31:30.539Z,98544.28
2022-11-22T13:34:26.113Z,98559.88
2022-11-22T13:37:14.929Z,98564.13
2022-11-22T13:40:09.975Z,98555.19
2022-11-22T13:43:17.868Z,98553.84
2022-11-22T13:46:45.295Z,98574.78
2022-11-22T13:49:48.242Z,98568.03
2022-11-22T13:52:51.973Z,98579.13
2022-11-22T13:55:42.403Z,98584.81
2022-11-22T13:58:27.912Z,98584.72
2022-11-22T14:01:34.905Z,98586.06
2022-11-22T14:04:41.856Z,98585.25
2022-11-22T14:07:34.169Z,98560.81
2022-11-22T14:10:44.493Z,98588.84
2022-11-22T14:13:41.324Z,98593.06
2022-11-22T14:16:53.360Z,98595.81
2022-11-22T14:19:56.811Z,98597.47
2022-11-22T14:22:55.426Z,98581.25
2022-11-22T14:26:02.829Z,98610.38
2022-11-22T14:29:12.348Z,98614.13
2022-11-22T14:32:04.143Z,98604.75
2022-11-22T14:35:04.394Z,98615.44
2022-11-22T14:38:07.967Z,98626.22
2022-11-22T14:41:13.212Z,98637.00
2022-11-22T14:44:13.067Z,98646.94
2022-11-22T14:47:04.566Z,98639.03
2022-11-22T14:49:51.007Z,98628.69
2022-11-22T14:52:36.820Z,98638.88
2022-11-22T14:55:27.553Z,98633.28
2022-11-22T14:58:19.877Z,98655.72
2022-11-22T15:01:42.449Z,98647.63
2022-11-22T15:09:14.768Z,98654.28
2022-11-22T15:09:20.788Z,98643.63
2022-11-22T15:11:31.997Z,98659.31
2022-11-22T15:14:49.353Z,98666.19
2022-11-22T15:59:24.273Z,98725.22
2022-11-22T16:02:16.281Z,98723.09
2022-11-22T16:06:05.425Z,98741.38
2022-11-22T16:08:14.357Z,98744.59
2022-11-22T16:11:00.467Z,98739.63
2022-11-22T16:13:45.400Z,98755.28
2022-11-22T16:16:33.362Z,98754.19
2022-11-22T16:19:25.581Z,98759.41
2022-11-22T16:22:28.705Z,98763.81
2022-11-22T16:25:32.457Z,98776.75
2022-11-22T16:28:30.996Z,98765.47
2022-11-22T16:31:18.023Z,98773.44
2022-11-22T16:34:03.050Z,98770.16
2022-11-22T16:36:48.275Z,98768.25
2022-11-22T16:39:33.972Z,98782.69
2022-11-22T16:42:19.565Z,98792.59
2022-11-22T16:45:06.579Z,98803.03
2022-11-22T16:48:03.819Z,98809.66
2022-11-22T16:51:05.409Z,98814.88
2022-11-22T16:53:53.027Z,98810.75
2022-11-22T16:56:38.106Z,98807.47
2022-11-22T16:59:23.077Z,98822.97
2022-11-22T17:02:13.146Z,98826.84
2022-11-22T17:04:58.086Z,98832.63
2022-11-22T17:07:43.047Z,98834.00
2022-11-22T17:10:28.226Z,98817.75
2022-11-22T17:13:17.370Z,98837.91
2022-11-22T17:16:02.563Z,98846.75
2022-11-22T17:18:48.482Z,98856.13
2022-11-22T17:21:37.623Z,98852.78
2022-11-22T17:24:23.895Z,98855.81
2022-11-22T17:27:13.846Z,98846.91
2022-11-22T17:29:59.178Z,98868.72
2022-11-22T17:32:44.250Z,98859.22
2022-11-22T17:35:34.464Z,98879.00
2022-11-22T17:38:22.128Z,98870.59
2022-11-22T17:41:07.122Z,98885.84
2022-11-22T17:43:52.306Z,98870.88
2022-11-22T17:46:38.280Z,98889.66
2022-11-22T17:49:23.178Z,98889.25
2022-11-22T17:52:08.189Z,98903.63
2022-11-22T17:54:53.310Z,98872.28
2022-11-22T17:57:40.534Z,98889.28
2022-11-22T18:00:29.872Z,98886.78
2022-11-22T18:03:15.153Z,98901.91
2022-11-22T18:06:01.626Z,98906.13
2022-11-22T18:08:47.441Z,98911.44
2022-11-22T18:11:33.220Z,98916.09
2022-11-22T18:14:18.334Z,98895.47
2022-11-22T18:17:03.444Z,98909.84
2022-11-22T18:19:48.614Z,98915.72
2022-11-22T18:22:34.269Z,98916.88
2022-11-22T18:25:20.122Z,98922.16
2022-11-22T18:28:05.406Z,98920.03
2022-11-22T18:30:50.696Z,98936.06
2022-11-22T18:33:35.997Z,98931.00
2022-11-22T18:36:54.079Z,98941.34
2022-11-22T18:39:36.312Z,98931.03
2022-11-22T18:42:23.443Z,98927.88
2022-11-22T18:45:09.438Z,98953.09
2022-11-22T18:47:54.544Z,98941.22
2022-11-22T18:50:39.609Z,98952.28
2022-11-22T18:53:24.853Z,98958.91
2022-11-22T18:56:12.897Z,98950.13
2022-11-22T18:58:58.050Z,98935.19
2022-11-22T19:01:43.255Z,98964.69
2022-11-22T19:04:28.940Z,98952.78
2022-11-22T19:07:14.732Z,98943.59
2022-11-22T19:10:01.299Z,98976.06
2022-11-22T19:12:46.447Z,98971.81
2022-11-22T19:15:32.171Z,98974.56
2022-11-22T19:18:19.482Z,98971.00
2022-11-22T19:21:06.244Z,98976.47
2022-11-22T19:23:51.430Z,98976.03
2022-11-22T19:26:36.580Z,98968.69
2022-11-22T19:29:21.989Z,98960.66
2022-11-22T19:32:06.996Z,98967.63
2022-11-22T19:34:52.311Z,98981.44
2022-11-22T19:37:37.724Z,98986.41
2022-11-22T19:40:22.799Z,98974.25
2022-11-22T19:43:12.209Z,98959.94
2022-11-22T19:46:01.390Z,98984.78
2022-11-22T19:48:51.561Z,98984.78
2022-11-22T19:51:36.970Z,98985.25
2022-11-22T19:54:22.119Z,98961.38
2022-11-22T19:57:07.303Z,98979.19
2022-11-22T19:59:55.859Z,98990.69
2022-11-22T20:02:45.021Z,98990.91
2022-11-22T20:05:32.133Z,98985.72
2022-11-22T20:08:17.259Z,98989.63
2022-11-22T20:11:11.006Z,98960.38
2022-11-22T20:13:56.293Z,98993.56
2022-11-22T20:16:41.768Z,98996.31
2022-11-22T20:19:32.663Z,99002.66
2022-11-22T20:22:19.165Z,98994.63
2022-11-22T20:25:05.814Z,98997.19
2022-11-22T20:27:51.103Z,99004.97
2022-11-22T20:30:36.172Z,98995.03
2022-11-22T20:33:21.455Z,98992.19
2022-11-22T20:36:21.792Z,99007.31
2022-11-22T20:39:12.429Z,99000.06
2022-11-22T20:42:31.981Z,99014.59
2022-11-22T20:45:08.417Z,99023.66
2022-11-22T20:47:53.402Z,99027.34
2022-11-22T20:50:38.394Z,99028.22
2022-11-22T20:53:24.335Z,99014.81
2022-11-22T20:56:10.311Z,99025.84
2022-11-22T20:58:55.717Z,99040.38
2022-11-22T21:01:43.401Z,99048.97
2022-11-22T21:04:28.490Z,99036.22
2022-11-22T21:07:13.878Z,99044.22
2022-11-22T21:09:58.665Z,99044.94
2022-11-22T21:12:43.684Z,99036.78
2022-11-22T21:15:28.841Z,99037.91
2022-11-22T21:18:29.897Z,99045.06
2022-11-22T21:21:14.819Z,99057.59
2022-11-22T21:24:01.701Z,99062.28
2022-11-22T21:26:46.803Z,99070.28
2022-11-22T21:29:31.928Z,99069.22
2022-11-22T21:32:17.525Z,99065.16
2022-11-22T21:35:02.542Z,99059.66
2022-11-22T21:37:47.410Z,99054.53
2022-11-22T21:40:32.389Z,99063.00
2022-11-22T21:43:17.691Z,99070.13
2022-11-22T21:46:02.969Z,99073.09
2022-11-22T21:48:49.638Z,99063.13
2022-11-22T21:51:34.555Z,99057.75
2022-11-22T21:54:19.411Z,99079.16
2022-11-22T21:57:04.310Z,99088.28
2022-11-22T21:59:49.331Z,99070.50
2022-11-22T22:02:35.377Z,99100.56
2022-11-22T22:05:20.550Z,99101.78
2022-11-22T22:08:06.266Z,99102.72
2022-11-22T22:10:52.099Z,99097.75
2022-11-22T22:13:37.315Z,99111.75
2022-11-22T22:16:23.875Z,99108.03
2022-11-22T22:19:10.126Z,99118.88
2022-11-22T22:21:55.327Z,99111.31
2022-11-22T22:24:40.533Z,99111.22
2022-11-22T22:27:25.707Z,99119.31
2022-11-22T22:30:11.737Z,99120.44
2022-11-22T22:32:58.167Z,99113.47
2022-11-22T22:35:43.271Z,99115.03
2022-11-22T22:38:30.853Z,99117.63
2022-11-22T22:41:16.934Z,99085.38
2022-11-22T22:44:01.960Z,99114.84
2022-11-22T22:46:47.266Z,99120.75
2022-11-22T22:49:32.746Z,99097.94
2022-11-22T22:52:18.087Z,99108.69
2022-11-22T22:55:03.095Z,99098.50
2022-11-22T22:57:48.136Z,99120.69
2022-11-22T23:00:33.005Z,99114.56
2022-11-22T23:03:18.058Z,99121.56
2022-11-22T23:06:07.709Z,99122.31
2022-11-22T23:08:54.381Z,99125.06
2022-11-22T23:11:58.564Z,99109.03
2022-11-22T23:14:43.697Z,99104.16
2022-11-22T23:17:28.727Z,99090.56
2022-11-22T23:20:14.233Z,99106.19
2022-11-22T23:22:59.370Z,99131.47
2022-11-22T23:25:44.499Z,99139.16
2022-11-22T23:28:30.115Z,99116.09
2022-11-22T23:31:15.892Z,99130.66
2022-11-22T23:34:01.681Z,99127.16
2022-11-22T23:36:46.863Z,99122.34
2022-11-22T23:39:32.516Z,99140.59
2022-11-22T23:42:17.682Z,99113.56
2022-11-22T23:45:02.712Z,99133.16
2022-11-22T23:47:50.821Z,99116.28
2022-11-22T23:50:37.504Z,99116.84
2022-11-22T23:53:22.775Z,99121.53
2022-11-22T23:56:15.086Z,99144.28
2022-11-22T23:59:05.586Z,99145.63
